Beaver County Airport
KBVI : now visible

Airfield :











YOU CAN JOIN US ON...

 
LOGIN :

Register | Disclaimer

   EN    FR    IT 

 









Legend :    VFR   Marginal VFR   IFR   Intensive IFR   Very Intensive IFR
Visi :
Ceiling :
>= 8 km
>= 3000ft
5 to 8 km
1000 to 3000 ft
1500m to 5 km
500 to 1000 ft
800 to 1500m
200 to 500 ft
< 800m
< 200 ft
Symbols :   Thunderstorms  Fog  Heavy snow  Heavy precipitations  Wind > 20 kt






- Airport Elevation : 1253 ft


KBVI - Beaver County

CURRENT METAR :
  • 141335Z AUTO 20005KT 10SM BKN100 BKN120 M01/M06 A3021 RMK AO2 T10111061

EXPIRED METARs :
  • 141255Z AUTO 16003KT 10SM OVC090 M02/M06 A3019 RMK AO2 T10181064
  • 141236Z AUTO 16003KT 10SM OVC090 M02/M07 A3018 RMK AO2 T10211066
  • 141216Z AUTO 16004KT 10SM OVC100 M02/M07 A3018 RMK AO2 T10221067
  • 141155Z AUTO 00000KT 10SM OVC100 M02/M07 A3018 RMK AO2 T10251070
  • 141136Z AUTO 17003KT 10SM OVC100 M03/M07 A3019 RMK AO2 T10271070
  • 141116Z AUTO 16004KT 10SM OVC100 M03/M07 A3018 RMK AO2 T10281070
  • 141055Z AUTO 17004KT 10SM OVC100 M03/M07 A3019 RMK AO2 T10291071

TAF KBVI
Valid from the 14 at 12:00 until the 15 at 12:00 UTC


141130Z 1412/1512 16005KT P6SM OVC120
FM141800 23010G18KT P6SM SCT120
FM142300 23005KT P6SM SCT250



MET'MAP, your aeronautical weather chart ! - Copyright ORBIFLY December 2007 - Disclaimer

ORBIFLY MET'MAP TEAM :

Programming & Development : Alexandra Zaïnal
Concept & Development : Baudouin d'Aumeries
Co-Development & Prog : Marc-Olivier Méhu
Technical & hardware support : Manuel Goepfert

Contact : metmap@orbifly.com




SOURCES & CREDITS :

   NOAA       Earth
Advisory